createdAt,value
2018-05-16T00:02:19.230Z,4.23
2018-05-16T00:04:48.173Z,4.10
2018-05-16T00:07:17.067Z,4.73
2018-05-16T00:09:45.963Z,4.93
2018-05-16T00:12:14.889Z,4.80
2018-05-16T00:14:43.992Z,5.60
2018-05-16T00:17:12.892Z,4.70
2018-05-16T00:19:41.925Z,5.27
2018-05-16T00:22:10.793Z,5.00
2018-05-16T00:24:39.777Z,6.47
2018-05-16T00:27:08.669Z,4.60
2018-05-16T00:29:37.528Z,4.37
2018-05-16T00:32:06.383Z,5.00
2018-05-16T00:34:35.485Z,4.90
2018-05-16T00:37:04.352Z,4.40
2018-05-16T00:39:33.242Z,4.93
2018-05-16T00:42:02.324Z,4.80
2018-05-16T00:44:31.188Z,5.37
2018-05-16T00:47:00.056Z,5.27
2018-05-16T00:49:28.941Z,4.97
2018-05-16T00:51:58.336Z,5.47
2018-05-16T00:54:27.211Z,5.20
2018-05-16T00:56:57.200Z,5.17
2018-05-16T00:59:26.061Z,5.00
2018-05-16T01:01:54.921Z,4.50
2018-05-16T01:04:23.812Z,5.40
2018-05-16T01:06:52.664Z,4.80
2018-05-16T01:09:21.508Z,5.10
2018-05-16T01:11:50.398Z,4.90
2018-05-16T01:14:19.517Z,4.90
2018-05-16T01:16:48.382Z,4.80
2018-05-16T01:19:17.282Z,5.17
2018-05-16T01:21:46.139Z,5.40
2018-05-16T01:24:15.003Z,5.07
2018-05-16T01:26:43.893Z,5.30
2018-05-16T01:29:12.755Z,4.60
2018-05-16T01:31:42.191Z,5.23
2018-05-16T01:34:11.076Z,5.00
2018-05-16T01:36:39.935Z,4.83
2018-05-16T01:39:08.789Z,4.63
2018-05-16T01:41:37.682Z,4.87
2018-05-16T01:44:06.547Z,5.30
2018-05-16T01:46:35.417Z,4.97
2018-05-16T01:49:21.974Z,5.53
2018-05-16T01:51:50.836Z,5.00
2018-05-16T01:54:19.755Z,5.10
2018-05-16T01:56:48.642Z,5.63
2018-05-16T01:59:17.493Z,5.73
2018-05-16T02:01:46.411Z,4.90
2018-05-16T02:04:15.301Z,6.27
2018-05-16T02:06:44.240Z,5.50
2018-05-16T02:09:13.044Z,5.40
2018-05-16T02:11:42.024Z,5.43
2018-05-16T02:14:10.888Z,6.60
2018-05-16T02:16:39.812Z,6.20
2018-05-16T02:19:08.631Z,6.20
2018-05-16T02:21:37.494Z,5.77
2018-05-16T02:24:06.354Z,5.70
2018-05-16T02:26:35.252Z,5.67
2018-05-16T02:29:04.102Z,5.50
2018-05-16T02:31:32.959Z,5.87
2018-05-16T02:34:01.907Z,6.20
2018-05-16T02:36:30.818Z,5.23
2018-05-16T02:38:59.690Z,5.77
2018-05-16T02:41:28.819Z,5.90
2018-05-16T02:43:57.738Z,5.43
2018-05-16T02:46:26.593Z,5.70
2018-05-16T02:48:55.494Z,5.60
2018-05-16T02:51:24.345Z,5.90
2018-05-16T02:53:53.199Z,6.03
2018-05-16T02:56:22.086Z,6.30
2018-05-16T02:58:50.937Z,6.27
2018-05-16T03:01:19.791Z,6.50
2018-05-16T03:03:48.675Z,5.80
2018-05-16T03:06:18.154Z,6.67
2018-05-16T03:08:47.006Z,6.20
2018-05-16T03:11:15.892Z,6.20
2018-05-16T03:13:44.762Z,6.30
2018-05-16T03:16:13.625Z,6.30
2018-05-16T03:18:42.572Z,6.03
2018-05-16T03:21:11.446Z,6.43
2018-05-16T03:23:40.297Z,6.40
2018-05-16T03:26:09.264Z,6.50
2018-05-16T03:28:38.118Z,6.53
2018-05-16T03:31:06.973Z,6.53
2018-05-16T03:33:36.344Z,6.40
2018-05-16T03:36:05.253Z,7.20
2018-05-16T03:38:34.115Z,6.93
2018-05-16T03:41:02.992Z,6.80
2018-05-16T03:43:31.845Z,7.20
2018-05-16T03:46:01.489Z,7.10
2018-05-16T03:48:30.372Z,7.10
2018-05-16T03:50:59.229Z,6.93
2018-05-16T03:53:28.079Z,6.60
2018-05-16T03:55:56.963Z,7.53
2018-05-16T03:58:31.810Z,8.13
2018-05-16T04:01:06.357Z,8.10
2018-05-16T04:03:41.209Z,7.27
2018-05-16T04:06:10.085Z,8.27
2018-05-16T04:08:38.950Z,8.23
2018-05-16T04:11:07.798Z,7.50
2018-05-16T04:13:36.720Z,8.13
2018-05-16T04:16:05.681Z,7.00
2018-05-16T04:18:34.644Z,7.90
2018-05-16T04:21:03.504Z,8.93
2018-05-16T04:23:32.359Z,8.10
2018-05-16T04:26:01.262Z,7.67
2018-05-16T04:28:30.193Z,7.30
2018-05-16T04:30:59.055Z,8.00
2018-05-16T04:33:27.901Z,8.30
2018-05-16T04:35:57.406Z,7.93
2018-05-16T04:38:26.258Z,8.10
2018-05-16T04:40:55.115Z,8.97
2018-05-16T04:43:24.004Z,8.87
2018-05-16T04:45:52.854Z,8.43
2018-05-16T04:48:21.714Z,8.07
2018-05-16T04:50:50.603Z,8.23
2018-05-16T04:53:19.463Z,7.53
2018-05-16T04:55:49.118Z,8.00
2018-05-16T04:58:18.158Z,7.80
2018-05-16T05:00:47.125Z,8.70
2018-05-16T05:03:15.994Z,8.57
2018-05-16T05:05:44.900Z,8.50
2018-05-16T05:08:13.752Z,8.47
2018-05-16T05:10:42.623Z,9.43
2018-05-16T05:13:11.523Z,9.70
2018-05-16T05:15:40.407Z,9.30
2018-05-16T05:18:09.273Z,9.30
2018-05-16T05:20:38.169Z,8.57
2018-05-16T05:23:07.024Z,8.80
2018-05-16T05:25:35.931Z,9.00
2018-05-16T05:28:04.817Z,8.67
2018-05-16T05:30:33.697Z,8.60
2018-05-16T05:33:02.719Z,7.40
2018-05-16T05:35:31.592Z,8.87
2018-05-16T05:38:00.468Z,8.50
2018-05-16T05:40:29.339Z,9.00
2018-05-16T05:42:58.259Z,9.93
2018-05-16T05:45:27.173Z,9.10
2018-05-16T05:47:56.032Z,9.70
2018-05-16T05:56:17.237Z,9.27
2018-05-16T05:58:46.103Z,9.27
2018-05-16T06:01:14.957Z,9.87
2018-05-16T06:03:43.844Z,10.20
2018-05-16T06:06:12.704Z,8.47
2018-05-16T06:08:41.689Z,16.17
2018-05-16T06:11:10.600Z,10.97
2018-05-16T06:13:39.797Z,9.40
2018-05-16T06:16:08.699Z,10.17
2018-05-16T06:18:37.601Z,10.10
2018-05-16T06:21:06.464Z,10.07
2018-05-16T06:23:35.345Z,9.23
2018-05-16T06:26:04.265Z,8.70
2018-05-16T06:28:33.198Z,9.73
2018-05-16T06:31:02.101Z,10.03
2018-05-16T06:33:31.001Z,10.97
2018-05-16T06:35:59.871Z,10.33
2018-05-16T06:38:28.742Z,9.63
2018-05-16T06:40:57.630Z,10.37
2018-05-16T06:43:26.489Z,11.13
2018-05-16T06:45:55.376Z,9.27
2018-05-16T06:48:24.278Z,10.03
2018-05-16T06:50:53.180Z,10.07
2018-05-16T06:53:26.906Z,10.50
2018-05-16T06:55:55.764Z,11.10
2018-05-16T06:58:24.669Z,10.73
2018-05-16T07:00:53.735Z,10.57
2018-05-16T07:03:22.594Z,10.90
2018-05-16T07:05:52.282Z,12.40
2018-05-16T07:08:21.198Z,10.60
2018-05-16T07:10:50.076Z,13.47
2018-05-16T07:13:18.936Z,12.23
2018-05-16T07:15:47.842Z,11.80
2018-05-16T07:18:16.703Z,12.40
2018-05-16T07:20:45.571Z,11.87
2018-05-16T07:23:14.465Z,12.20
2018-05-16T07:25:43.335Z,12.80
2018-05-16T07:28:12.217Z,12.63
2018-05-16T07:30:41.105Z,12.67
2018-05-16T07:33:09.972Z,12.97
2018-05-16T07:35:39.441Z,13.40
2018-05-16T07:38:08.388Z,12.10
2018-05-16T07:40:38.077Z,12.60
2018-05-16T07:43:07.025Z,12.70
2018-05-16T07:45:35.909Z,13.37
2018-05-16T07:48:05.447Z,12.30
2018-05-16T07:50:34.334Z,11.20
2018-05-16T07:53:02.438Z,10.40
2018-05-16T07:55:30.915Z,10.33
2018-05-16T07:57:58.956Z,11.83
2018-05-16T08:00:26.893Z,11.83
2018-05-16T08:02:54.937Z,12.10
2018-05-16T08:05:22.857Z,11.33
2018-05-16T08:07:50.790Z,11.47
2018-05-16T08:10:18.696Z,10.40
2018-05-16T08:12:46.610Z,10.77
2018-05-16T08:15:23.885Z,11.00
2018-05-16T08:17:53.702Z,10.93
2018-05-16T08:20:22.701Z,10.57
2018-05-16T08:22:51.570Z,10.73
2018-05-16T08:25:20.428Z,10.17
2018-05-16T08:27:49.679Z,11.80
2018-05-16T08:30:18.853Z,10.87
2018-05-16T08:32:47.796Z,11.60
2018-05-16T08:35:16.684Z,10.53
2018-05-16T08:37:45.546Z,10.40
2018-05-16T08:40:14.410Z,9.93
2018-05-16T08:42:43.325Z,10.80
2018-05-16T08:45:11.225Z,10.03
2018-05-16T08:47:39.147Z,10.27
2018-05-16T08:50:07.078Z,9.93
2018-05-16T08:52:34.973Z,8.70
2018-05-16T08:55:02.902Z,9.57
2018-05-16T08:57:30.953Z,8.80
2018-05-16T08:59:58.845Z,8.53
2018-05-16T09:02:26.767Z,9.50
2018-05-16T09:04:54.719Z,9.53
2018-05-16T09:07:22.620Z,8.60
2018-05-16T09:09:50.549Z,8.60
2018-05-16T09:12:18.472Z,8.20
2018-05-16T09:14:46.398Z,9.07
2018-05-16T09:17:14.403Z,9.90
2018-05-16T09:19:42.277Z,7.37
2018-05-16T09:22:10.189Z,9.47
2018-05-16T09:24:39.044Z,8.83
2018-05-16T09:27:07.429Z,8.43
2018-05-16T09:29:36.437Z,9.00
2018-05-16T09:32:05.660Z,7.37
2018-05-16T09:34:33.636Z,7.17
2018-05-16T09:37:02.837Z,8.30
2018-05-16T09:39:30.785Z,6.90
2018-05-16T09:41:59.686Z,7.40
2018-05-16T09:44:27.601Z,6.60
2018-05-16T09:46:56.701Z,7.27
2018-05-16T09:49:24.641Z,6.60
2018-05-16T09:51:53.530Z,7.40
2018-05-16T10:00:10.272Z,6.87
2018-05-16T10:02:39.523Z,6.83
2018-05-16T10:05:07.714Z,6.97
2018-05-16T10:07:37.459Z,6.20
2018-05-16T10:10:06.144Z,6.67
2018-05-16T10:12:37.774Z,6.60
2018-05-16T10:15:08.420Z,7.90
2018-05-16T10:17:38.544Z,6.77
2018-05-16T10:20:09.020Z,6.70
2018-05-16T10:22:39.306Z,6.33
2018-05-16T10:25:09.108Z,6.97
2018-05-16T10:27:38.063Z,6.87
2018-05-16T10:30:06.331Z,5.60
2018-05-16T10:32:34.302Z,6.27
2018-05-16T10:35:02.301Z,5.37
2018-05-16T10:37:30.204Z,5.60
2018-05-16T10:39:58.138Z,4.90
2018-05-16T10:42:26.089Z,5.70
2018-05-16T10:44:54.038Z,5.50
2018-05-16T10:47:22.005Z,5.70
2018-05-16T10:49:53.977Z,5.40
2018-05-16T10:52:28.409Z,4.93
2018-05-16T10:55:02.291Z,5.07
2018-05-16T10:57:30.381Z,5.00
2018-05-16T10:59:58.269Z,4.67
2018-05-16T11:02:26.224Z,4.77
2018-05-16T11:04:54.177Z,5.10
2018-05-16T11:07:22.111Z,4.97
2018-05-16T11:09:50.017Z,5.43
2018-05-16T11:12:18.350Z,5.50
2018-05-16T11:14:46.268Z,4.90
2018-05-16T11:17:14.185Z,5.40
2018-05-16T11:19:42.120Z,5.07
2018-05-16T11:22:10.048Z,4.70
2018-05-16T11:24:39.188Z,4.77
2018-05-16T11:27:07.060Z,4.70
2018-05-16T11:29:34.980Z,4.43
2018-05-16T11:32:02.889Z,4.30
2018-05-16T11:34:30.837Z,4.93
2018-05-16T11:36:58.757Z,4.83
2018-05-16T11:39:26.674Z,6.17
2018-05-16T11:41:54.618Z,6.33
2018-05-16T11:44:22.536Z,7.50
2018-05-16T11:46:50.442Z,6.40
2018-05-16T11:49:18.391Z,6.00
2018-05-16T11:51:46.310Z,6.80
2018-05-16T11:54:14.226Z,6.27
2018-05-16T11:56:42.160Z,7.30
2018-05-16T11:59:10.172Z,8.10
2018-05-16T12:01:38.013Z,8.20
2018-05-16T12:04:05.975Z,7.87
2018-05-16T12:06:33.886Z,6.77
2018-05-16T12:09:01.831Z,7.00
2018-05-16T12:11:29.768Z,7.67
2018-05-16T12:13:57.738Z,7.90
2018-05-16T12:16:25.852Z,8.73
2018-05-16T12:18:53.786Z,9.30
2018-05-16T12:21:21.703Z,9.33
2018-05-16T12:23:53.371Z,10.50
2018-05-16T12:26:23.036Z,10.10
2018-05-16T12:28:51.121Z,7.63
2018-05-16T12:31:19.005Z,10.60
2018-05-16T12:33:46.943Z,10.70
2018-05-16T12:36:14.852Z,9.63
2018-05-16T12:38:42.858Z,11.30
2018-05-16T12:41:10.821Z,11.17
2018-05-16T12:43:38.734Z,9.37
2018-05-16T12:46:06.647Z,9.13
2018-05-16T12:48:34.582Z,9.87
2018-05-16T12:51:02.506Z,9.20
2018-05-16T12:53:30.722Z,9.87
2018-05-16T12:55:58.664Z,12.60
2018-05-16T12:58:26.575Z,13.00
2018-05-16T13:00:54.500Z,10.10
2018-05-16T13:03:22.454Z,10.53
2018-05-16T13:05:50.365Z,12.30
2018-05-16T13:08:20.821Z,12.13
2018-05-16T13:10:48.931Z,12.17
2018-05-16T13:13:16.841Z,12.30
2018-05-16T13:15:44.752Z,10.93
2018-05-16T13:18:13.642Z,11.40
2018-05-16T13:20:41.913Z,11.00
2018-05-16T13:26:29.517Z,11.50
2018-05-16T13:28:57.474Z,12.03
2018-05-16T13:31:25.390Z,11.33
2018-05-16T13:33:53.310Z,10.20
2018-05-16T13:36:21.238Z,10.53
2018-05-16T13:38:49.315Z,9.57
2018-05-16T13:41:18.358Z,8.00
2018-05-16T13:43:46.276Z,8.10
2018-05-16T13:46:14.184Z,5.30
2018-05-16T13:48:42.082Z,5.13
2018-05-16T13:51:10.006Z,5.30
2018-05-16T13:53:37.901Z,5.37
2018-05-16T13:56:05.818Z,5.07
2018-05-16T13:58:33.751Z,6.60
2018-05-16T14:01:01.659Z,5.37
2018-05-16T14:03:29.810Z,4.90
2018-05-16T14:05:57.706Z,4.83
2018-05-16T14:08:25.622Z,5.07
2018-05-16T14:10:53.558Z,4.87
2018-05-16T14:13:21.463Z,4.80
2018-05-16T14:15:49.399Z,5.80
2018-05-16T14:18:17.305Z,5.17
2018-05-16T14:20:45.375Z,4.03
2018-05-16T14:23:13.301Z,6.60
2018-05-16T14:25:41.208Z,3.70
2018-05-16T14:28:09.751Z,4.80
2018-05-16T14:30:37.782Z,5.30
2018-05-16T14:33:05.713Z,4.20
2018-05-16T14:35:33.734Z,4.53
2018-05-16T14:38:01.683Z,4.80
2018-05-16T14:40:29.591Z,4.37
2018-05-16T14:42:57.539Z,4.73
2018-05-16T14:45:25.492Z,4.40
2018-05-16T14:47:53.453Z,4.77
2018-05-16T14:50:21.374Z,4.00
2018-05-16T14:52:49.287Z,4.80
2018-05-16T14:55:17.181Z,3.90
2018-05-16T14:57:48.710Z,6.50
2018-05-16T15:00:20.670Z,5.97
2018-05-16T15:03:12.574Z,5.40
2018-05-16T15:15:21.197Z,4.93
2018-05-16T15:17:49.174Z,4.80
2018-05-16T15:20:42.406Z,6.40
2018-05-16T15:26:09.934Z,5.87
2018-05-16T15:28:37.846Z,6.80
2018-05-16T15:31:08.865Z,5.80
2018-05-16T15:33:40.492Z,6.20
2018-05-16T15:36:09.882Z,6.47
2018-05-16T15:38:37.867Z,6.80
2018-05-16T15:41:05.818Z,6.50
2018-05-16T15:43:33.730Z,5.70
2018-05-16T15:46:01.702Z,7.00
2018-05-16T15:48:29.641Z,6.87
2018-05-16T15:50:57.547Z,6.00
2018-05-16T15:53:25.452Z,6.30
2018-05-16T15:55:53.410Z,6.07
2018-05-16T15:58:21.344Z,5.90
2018-05-16T16:00:49.267Z,7.40
2018-05-16T16:03:17.233Z,7.63
2018-05-16T16:05:45.176Z,7.43
2018-05-16T16:08:13.151Z,10.57
2018-05-16T16:10:41.099Z,18.50
2018-05-16T16:13:09.015Z,24.40
2018-05-16T16:15:37.112Z,14.03
2018-05-16T16:18:06.524Z,8.90
2018-05-16T16:20:34.440Z,7.30
2018-05-16T16:23:02.353Z,6.70
2018-05-16T16:25:30.278Z,6.80
2018-05-16T16:27:59.535Z,5.93
2018-05-16T16:30:28.461Z,6.10
2018-05-16T16:32:56.513Z,6.50
2018-05-16T16:35:24.436Z,6.10
2018-05-16T16:37:52.362Z,5.77
2018-05-16T16:40:20.327Z,5.23
2018-05-16T16:42:48.238Z,5.33
2018-05-16T16:45:16.185Z,5.50
2018-05-16T16:47:44.144Z,5.50
2018-05-16T16:50:12.102Z,5.43
2018-05-16T16:52:40.012Z,5.10
2018-05-16T16:55:07.947Z,4.73
2018-05-16T16:57:35.928Z,5.33
2018-05-16T17:00:03.896Z,5.27
2018-05-16T17:02:31.813Z,4.60
2018-05-16T17:04:59.737Z,5.20
2018-05-16T17:07:27.667Z,5.30
2018-05-16T17:09:55.602Z,5.60
2018-05-16T17:12:23.523Z,4.87
2018-05-16T17:14:51.446Z,4.90
2018-05-16T17:17:19.390Z,5.27
2018-05-16T17:19:48.249Z,4.47
2018-05-16T17:22:17.147Z,5.03
2018-05-16T17:24:45.096Z,6.03
2018-05-16T17:27:14.019Z,5.20
2018-05-16T17:29:42.097Z,5.97
2018-05-16T17:32:11.023Z,4.40
2018-05-16T17:34:39.037Z,5.83
2018-05-16T17:37:07.968Z,5.43
2018-05-16T17:39:35.895Z,6.30
2018-05-16T17:42:04.740Z,5.77
2018-05-16T17:44:32.667Z,5.73
2018-05-16T17:47:01.635Z,5.40
2018-05-16T17:49:30.525Z,5.10
2018-05-16T17:51:59.414Z,5.40
2018-05-16T17:54:28.356Z,4.77
2018-05-16T17:56:57.260Z,4.73
2018-05-16T17:59:26.199Z,4.87
2018-05-16T18:01:55.112Z,4.40
2018-05-16T18:04:24.005Z,4.70
2018-05-16T18:06:52.911Z,5.43
2018-05-16T18:09:21.831Z,4.70
2018-05-16T18:11:50.725Z,5.07
2018-05-16T18:14:25.357Z,5.10
2018-05-16T18:17:00.109Z,4.37
2018-05-16T18:19:29.023Z,4.13
2018-05-16T18:21:57.927Z,4.27
2018-05-16T18:24:27.041Z,4.23
2018-05-16T18:26:56.563Z,4.00
2018-05-16T18:29:25.572Z,4.50
2018-05-16T18:31:54.491Z,5.07
2018-05-16T18:34:23.484Z,4.53
2018-05-16T18:36:52.413Z,4.23
2018-05-16T18:39:21.339Z,4.40
2018-05-16T18:41:53.016Z,4.33
2018-05-16T18:44:25.003Z,4.20
2018-05-16T18:46:56.728Z,4.90
2018-05-16T18:49:25.859Z,4.57
2018-05-16T18:51:54.842Z,4.80
2018-05-16T18:54:23.858Z,4.40
2018-05-16T18:56:52.958Z,4.43
2018-05-16T18:59:21.978Z,4.40
2018-05-16T19:01:50.987Z,4.10
2018-05-16T19:04:19.948Z,4.60
2018-05-16T19:06:48.905Z,5.33
2018-05-16T19:09:17.869Z,4.77
2018-05-16T19:11:46.809Z,4.90
2018-05-16T19:14:15.806Z,4.73
2018-05-16T19:16:45.727Z,5.03
2018-05-16T19:19:14.689Z,5.10
2018-05-16T19:21:43.957Z,5.07
2018-05-16T19:24:12.915Z,5.30
2018-05-16T19:26:41.835Z,5.07
2018-05-16T19:29:11.474Z,6.03
2018-05-16T19:34:16.971Z,4.80
2018-05-16T19:36:46.042Z,5.30
2018-05-16T19:39:15.114Z,6.00
2018-05-16T19:41:44.129Z,5.87
2018-05-16T19:44:13.067Z,5.43
2018-05-16T19:46:42.039Z,5.00
2018-05-16T19:49:11.902Z,4.97
2018-05-16T19:51:41.726Z,5.63
2018-05-16T19:54:10.846Z,5.77
2018-05-16T19:56:40.732Z,4.93
2018-05-16T19:59:09.749Z,5.10
2018-05-16T20:01:38.747Z,5.20
2018-05-16T20:04:07.754Z,6.10
2018-05-16T20:06:36.700Z,5.20
2018-05-16T20:09:05.667Z,5.57
2018-05-16T20:11:34.679Z,5.43
2018-05-16T20:14:03.744Z,5.00
2018-05-16T20:16:33.431Z,5.43
2018-05-16T20:19:03.332Z,5.20
2018-05-16T20:21:32.260Z,5.40
2018-05-16T20:24:01.162Z,4.83
2018-05-16T20:26:30.095Z,4.90
2018-05-16T20:28:59.560Z,4.77
2018-05-16T20:31:28.444Z,4.40
2018-05-16T20:33:58.120Z,4.43
2018-05-16T20:36:27.078Z,4.47
2018-05-16T20:38:55.974Z,5.23
2018-05-16T20:41:25.801Z,4.50
2018-05-16T20:43:54.724Z,6.10
2018-05-16T20:46:23.597Z,5.00
2018-05-16T20:48:52.513Z,4.60
2018-05-16T20:51:21.487Z,4.70
2018-05-16T20:53:50.390Z,5.27
2018-05-16T20:56:19.325Z,4.37
2018-05-16T20:58:48.289Z,5.33
2018-05-16T21:01:17.126Z,4.40
2018-05-16T21:03:46.110Z,4.50
2018-05-16T21:06:14.994Z,5.37
2018-05-16T21:08:43.987Z,4.70
2018-05-16T21:11:13.460Z,4.80
2018-05-16T21:13:42.497Z,5.50
2018-05-16T21:16:11.416Z,5.53
2018-05-16T21:18:40.342Z,4.50
2018-05-16T21:21:09.232Z,5.30
2018-05-16T21:23:38.097Z,5.07
2018-05-16T21:26:07.033Z,4.73
2018-05-16T21:28:35.946Z,4.60
2018-05-16T21:31:04.879Z,4.40
2018-05-16T21:33:33.807Z,4.40
2018-05-16T21:36:02.700Z,4.40
2018-05-16T21:38:32.533Z,5.83
2018-05-16T21:41:02.977Z,4.20
2018-05-16T21:43:31.926Z,4.33
2018-05-16T21:46:00.866Z,5.30
2018-05-16T21:48:29.795Z,5.20
2018-05-16T21:51:01.612Z,4.47
2018-05-16T21:53:33.985Z,4.60
2018-05-16T21:56:03.171Z,4.20
2018-05-16T21:58:32.102Z,6.00
2018-05-16T22:01:00.971Z,4.43
2018-05-16T22:03:29.960Z,4.17
2018-05-16T22:05:58.873Z,4.00
2018-05-16T22:08:27.788Z,5.10
2018-05-16T22:10:56.697Z,4.40
2018-05-16T22:13:25.679Z,4.27
2018-05-16T22:15:54.590Z,4.40
2018-05-16T22:18:23.493Z,5.07
2018-05-16T22:20:52.441Z,4.20
2018-05-16T22:23:21.408Z,4.23
2018-05-16T22:25:50.334Z,5.13
2018-05-16T22:28:19.284Z,4.60
2018-05-16T22:30:53.936Z,4.80
2018-05-16T22:33:28.533Z,4.90
2018-05-16T22:36:03.052Z,4.70
2018-05-16T22:38:37.584Z,3.90
2018-05-16T22:41:12.292Z,5.40
2018-05-16T22:43:44.954Z,4.53
2018-05-16T22:46:13.926Z,5.10
2018-05-16T22:48:42.839Z,3.83
2018-05-16T22:51:11.785Z,4.30
2018-05-16T22:53:40.700Z,3.70
2018-05-16T22:56:09.664Z,5.70
2018-05-16T22:58:38.676Z,4.77
2018-05-16T23:01:07.603Z,4.07
2018-05-16T23:03:36.543Z,4.57
2018-05-16T23:06:05.525Z,4.90
2018-05-16T23:08:34.514Z,4.17
2018-05-16T23:11:03.408Z,5.37
2018-05-16T23:13:32.361Z,5.57
2018-05-16T23:16:01.324Z,4.33
2018-05-16T23:18:30.326Z,4.07
2018-05-16T23:20:59.306Z,3.93
2018-05-16T23:23:28.207Z,4.10
2018-05-16T23:25:57.976Z,4.20
2018-05-16T23:28:26.942Z,4.70
2018-05-16T23:30:55.904Z,4.87
2018-05-16T23:33:24.810Z,4.47
2018-05-16T23:35:53.756Z,4.20
2018-05-16T23:38:22.861Z,3.70
2018-05-16T23:40:51.849Z,4.40
2018-05-16T23:43:20.910Z,3.80
2018-05-16T23:45:49.787Z,5.03
2018-05-16T23:48:18.676Z,4.10
2018-05-16T23:50:47.678Z,4.80
2018-05-16T23:53:16.589Z,4.20
2018-05-16T23:55:45.486Z,4.40
2018-05-16T23:58:14.764Z,4.30
